Wednesday, January 17, 2018, 7:09 PM EST
Back to Local

KBVY, Beverly Municipal Airport

Location: Danvers, MA, United States Lat: 42.583
Local Time: 7:09 PM EST ( 0:09 GMT) Lon: -70.917
Time Zone: US/Eastern Elev: 108 ft

Show me the last for .
Show Decoded

2018-01-17 18:53 METAR KBVY 172353Z 34006KT 3SM -SN BR FEW006 BKN016 OVC031 M01/M01 A3009 RMK AO2
                 SLP185 P0000 60002 I6001 T10061011 10006 21006 56009 =
2018-01-17 18:21 METAR KBVY 172321Z 35005KT 2SM -SN BR SCT009 BKN026 OVC031 00/M01 A3009 RMK AO2
                 P0000 T00001011 =
2018-01-17 17:53 METAR KBVY 172253Z 35008KT 2SM -SN BR OVC005 00/M01 A3009 RMK AO2 SNB18 CIG
                 003V009 SLP188 P0000 T00001011 =
2018-01-17 17:37 METAR KBVY 172237Z 35005KT 2SM -SN BR OVC006 00/M01 A3010 RMK AO2 SNB18 CIG
                 003V009 P0000 T00001006 =
2018-01-17 16:53 METAR KBVY 172153Z 01006KT 6SM BR OVC007 00/M01 A3010 RMK AO2 CIG 003V008 SLP190
                 T00001011 =
2018-01-17 15:53 METAR KBVY 172053Z 03006KT 3SM BR OVC006 01/M01 A3011 RMK AO2 SNB17E30 CIG
                 004V009 SLP195 P0001 60002 I1001 I3001 T00061006 56016 =
2018-01-17 14:53 METAR KBVY 171953Z 04006KT 3SM BR OVC006 01/M01 A3012 RMK AO2 SNE48 CIG 004V010
                 SLP196 P0000 T00061006 =
2018-01-17 13:53 METAR KBVY 171853Z 02005KT 1 1/4SM -SN BR OVC006 01/00 A3013 RMK AO2 SLP201
                 P0001 T00060000 =
2018-01-17 13:23 METAR KBVY 171823Z 02006KT 3/4SM -SN BR OVC006 01/M01 A3015 RMK AO2 P0000
                 T00061006 =
2018-01-17 12:53 METAR KBVY 171753Z 03007KT 1 1/4SM -SN BR OVC005 01/M01 A3016 RMK AO2 SLP211
                 P0001 60006 T00061006 10011 20006 58039 =
2018-01-17 12:00 METAR KBVY 171700Z 01008KT 1 1/4SM -SN BR OVC003 01/00 A3020 RMK AO2 P0000
                 T00110000 =
2018-01-17 11:53 METAR KBVY 171653Z 01006KT 2SM -SN BR OVC003 01/00 A3020 RMK AO2 SLP224 P0001
                 T00110000 =
2018-01-17 11:36 METAR KBVY 171636Z 02005KT 2SM -SN BR BKN003 OVC017 01/01 A3021 RMK AO2 P0001
                 T00110006 =
2018-01-17 11:17 METAR KBVY 171617Z 01005KT 1 1/4SM -SN BR BKN003 OVC012 01/01 A3023 RMK AO2
                 P0000 T00110006 =
2018-01-17 10:53 METAR KBVY 171553Z 03004KT 2SM -SN BR OVC003 01/00 A3025 RMK AO2 SLP241 P0001
                 T00110000 =
2018-01-17 10:12 METAR KBVY 171512Z 03003KT 3/4SM -SN BR BKN003 OVC017 01/01 A3027 RMK AO2 P0000
                 T00110006 =
2018-01-17 10:00 METAR KBVY 171500Z 05003KT 1SM -SN BR BKN003 OVC015 01/00 A3027 RMK AO2 P0000
                 T00060000 =
2018-01-17 09:53 METAR KBVY 171453Z 05003KT 3/4SM -SN BR BKN006 OVC010 01/00 A3028 RMK AO2 SLP250
                 P0001 60003 T00060000 56013 =
2018-01-17 08:53 METAR KBVY 171353Z 00000KT 3/4SM -SN BR BKN006 OVC016 01/00 A3029 RMK AO2 SLP254
                 P0001 T00060000 =
2018-01-17 08:19 METAR KBVY 171319Z 02004KT 1/2SM SN FG BKN004 OVC010 00/M01 A3029 RMK AO2 P0000
                 T00001006 =
2018-01-17 08:03 METAR KBVY 171303Z 02004KT 3/4SM -SN BR OVC005 00/M01 A3029 RMK AO2 P0000
                 T00001006 =
2018-01-17 07:53 METAR KBVY 171253Z 02004KT 3/4SM -SN BR OVC003 00/M01 A3030 RMK AO2 SLP257 P0001
                 T00001006 =
2018-01-17 07:33 METAR KBVY 171233Z 03004KT 3/4SM -SN BR OVC003 00/M01 A3030 RMK AO2 P0000
                 T00001006 =
2018-01-17 06:53 METAR KBVY 171153Z 02003KT 1SM -SN BR OVC003 00/M01 A3032 RMK AO2 SLP263 P0001
                 60004 70004 T00001011 10011 21006 58009 =
2018-01-17 06:27 METAR KBVY 171127Z AUTO 04003KT 1 1/2SM -SN BR BKN004 OVC018 00/M01 A3032 RMK
                 AO2 P0000 T00001011 =
2018-01-17 06:14 METAR KBVY 171114Z AUTO 06003KT 1 1/2SM -SN BR SCT009 OVC018 00/M01 A3032 RMK
                 AO2 P0000 T00001011 =
2018-01-17 05:53 METAR KBVY 171053Z AUTO 07003KT 1 1/4SM -SN BR BKN009 OVC017 00/M02 A3033 RMK
                 AO2 SNB16 SLP268 P0003 T00001017 =
2018-01-17 05:44 METAR KBVY 171044Z AUTO 04003KT 1 1/2SM -SN BR SCT011 OVC023 M01/M02 A3034 RMK
                 AO2 SNB16 P0001 T10061017 =
2018-01-17 05:35 METAR KBVY 171035Z AUTO 00000KT 2SM -SN BR SCT011 OVC029 M01/M02 A3034 RMK AO2
                 SNB16 P0000 T10061017 =
2018-01-17 04:53 METAR KBVY 170953Z AUTO 00000KT 10SM FEW042 OVC065 M01/M03 A3034 RMK AO2 SLP273
                 T10061028 =
2018-01-17 03:53 METAR KBVY 170853Z AUTO 00000KT 10SM BKN035 OVC050 01/M02 A3035 RMK AO2 SLP276
                 T00061022 58009 =
2018-01-17 02:53 METAR KBVY 170753Z AUTO 00000KT 10SM OVC030 00/M02 A3037 RMK AO2 SLP283
                 T00001022 =
2018-01-17 01:53 METAR KBVY 170653Z AUTO 00000KT 10SM OVC034 01/M03 A3038 RMK AO2 SLP284
                 T00061028 =
2018-01-17 00:53 METAR KBVY 170553Z AUTO 15004KT 10SM OVC032 01/M03 A3038 RMK AO2 SLP285
                 T00061028 10011 20000 56017 =
2018-01-16 23:53 METAR KBVY 170453Z AUTO 17003KT 10SM OVC032 01/M03 A3039 RMK AO2 SLP288
                 T00061028 400111078 =
2018-01-16 22:53 METAR KBVY 170353Z AUTO 16004KT 10SM OVC031 01/M03 A3042 RMK AO2 SLP298
                 T00061028 =
2018-01-16 21:53 METAR KBVY 170253Z AUTO 17005KT 10SM BKN033 OVC040 01/M03 A3043 RMK AO2 SLP302
                 T00061028 58008 =
2018-01-16 20:53 METAR KBVY 170153Z AUTO 17004KT 10SM OVC031 01/M03 A3044 RMK AO2 SLP305
                 T00061033 =
2018-01-16 20:01 METAR KBVY 170101Z AUTO 16003KT 10SM OVC030 01/M04 A3045 RMK AO2 T00061039 =
2018-01-16 19:53 METAR KBVY 170053Z 17003KT 10SM OVC029 01/M04 A3045 RMK AO2 SLP308 LAST
                 T00061039 =
2018-01-16 19:17 METAR KBVY 170017Z 17003KT 10SM BKN029 OVC075 01/M04 A3045 RMK AO2 T00061039 =

Support USWX by starting your Amazon purchase here.